createdAt,value
2019-04-13T00:00:01.207Z,32.20
2019-04-13T00:02:44.705Z,34.27
2019-04-13T00:05:54.386Z,34.23
2019-04-13T00:08:27.487Z,32.08
2019-04-13T00:11:06.725Z,32.23
2019-04-13T00:13:39.766Z,31.90
2019-04-13T00:16:12.705Z,32.05
2019-04-13T00:18:45.147Z,34.00
2019-04-13T00:21:17.585Z,31.50
2019-04-13T00:23:49.965Z,32.20
2019-04-13T00:26:23.265Z,32.50
2019-04-13T00:28:56.365Z,32.58
2019-04-13T00:31:29.009Z,31.77
2019-04-13T00:34:01.968Z,32.90
2019-04-13T00:36:34.866Z,32.58
2019-04-13T00:39:09.342Z,33.15
2019-04-13T00:41:42.319Z,32.13
2019-04-13T00:44:15.280Z,32.50
2019-04-13T00:46:47.423Z,33.85
2019-04-13T00:49:20.439Z,33.60
2019-04-13T00:51:52.972Z,32.48
2019-04-13T00:54:26.524Z,33.08
2019-04-13T00:56:59.239Z,33.45
2019-04-13T00:59:31.309Z,34.13
2019-04-13T01:02:04.440Z,33.15
2019-04-13T01:04:36.366Z,32.25
2019-04-13T01:07:08.759Z,33.18
2019-04-13T01:09:41.261Z,33.55
2019-04-13T01:12:14.521Z,33.40
2019-04-13T01:14:47.564Z,32.85
2019-04-13T01:17:20.059Z,32.50
2019-04-13T01:19:53.218Z,33.23
2019-04-13T01:22:24.560Z,33.55
2019-04-13T01:24:57.179Z,35.23
2019-04-13T01:27:29.979Z,33.78
2019-04-13T01:30:02.360Z,33.33
2019-04-13T01:32:35.419Z,33.00
2019-04-13T01:35:08.580Z,32.85
2019-04-13T01:37:41.619Z,35.17
2019-04-13T01:40:14.960Z,34.92
2019-04-13T01:42:48.500Z,33.33
2019-04-13T01:45:21.939Z,34.80
2019-04-13T01:47:57.225Z,34.30
2019-04-13T01:50:29.679Z,40.17
2019-04-13T01:53:02.799Z,37.80
2019-04-13T01:55:35.978Z,35.52
2019-04-13T01:58:09.860Z,34.95
2019-04-13T02:00:55.440Z,32.75
2019-04-13T02:03:27.920Z,33.75
2019-04-13T02:06:06.120Z,34.67
2019-04-13T02:08:59.019Z,32.88
2019-04-13T02:11:35.759Z,33.48
2019-04-13T02:14:07.359Z,32.15
2019-04-13T02:16:40.359Z,33.50
2019-04-13T02:19:12.820Z,32.50
2019-04-13T02:21:45.840Z,33.33
2019-04-13T02:24:19.280Z,33.30
2019-04-13T02:26:52.200Z,33.00
2019-04-13T02:29:25.780Z,34.30
2019-04-13T02:31:59.440Z,33.45
2019-04-13T02:34:31.599Z,32.90
2019-04-13T02:37:04.441Z,33.58
2019-04-13T02:39:36.241Z,33.35
2019-04-13T02:42:09.060Z,31.02
2019-04-13T02:44:41.900Z,34.98
2019-04-13T02:47:14.802Z,38.78
2019-04-13T02:49:47.779Z,36.68
2019-04-13T02:52:21.021Z,34.30
2019-04-13T02:54:53.639Z,34.58
2019-04-13T02:57:25.080Z,34.25
2019-04-13T02:59:58.259Z,34.40
2019-04-13T03:02:30.760Z,35.03
2019-04-13T03:05:03.919Z,31.97
2019-04-13T03:07:36.821Z,33.35
2019-04-13T03:10:10.099Z,34.13
2019-04-13T03:12:43.280Z,33.20
2019-04-13T03:15:16.574Z,33.60
2019-04-13T03:18:17.539Z,34.27
2019-04-13T03:20:50.861Z,35.15
2019-04-13T03:23:23.180Z,34.05
2019-04-13T03:25:55.059Z,34.35
2019-04-13T03:28:28.379Z,35.20
2019-04-13T03:31:01.500Z,32.80
2019-04-13T03:33:34.526Z,32.60
2019-04-13T03:36:07.240Z,32.28
2019-04-13T03:38:39.179Z,34.48
2019-04-13T03:41:13.004Z,35.05
2019-04-13T03:43:45.400Z,32.80
2019-04-13T03:46:18.283Z,33.53
2019-04-13T03:48:51.440Z,35.03
2019-04-13T03:51:24.099Z,34.18
2019-04-13T03:53:56.079Z,34.03
2019-04-13T03:56:28.820Z,34.48
2019-04-13T03:59:01.393Z,35.90
2019-04-13T04:01:34.982Z,35.60
2019-04-13T04:04:07.179Z,33.92
2019-04-13T04:06:40.246Z,35.60
2019-04-13T04:09:12.559Z,35.03
2019-04-13T04:11:44.679Z,34.05
2019-04-13T04:14:17.282Z,37.17
2019-04-13T04:16:49.622Z,35.52
2019-04-13T04:19:23.520Z,34.63
2019-04-13T04:21:56.568Z,36.45
2019-04-13T04:24:28.899Z,35.60
2019-04-13T04:27:01.240Z,37.45
2019-04-13T04:29:34.280Z,38.15
2019-04-13T04:32:07.899Z,41.20
2019-04-13T04:34:40.680Z,35.08
2019-04-13T04:37:11.920Z,40.08
2019-04-13T04:39:45.419Z,35.50
2019-04-13T04:42:18.219Z,33.78
2019-04-13T04:44:50.659Z,36.85
2019-04-13T04:47:22.362Z,36.80
2019-04-13T04:49:54.799Z,36.00
2019-04-13T04:52:27.079Z,34.83
2019-04-13T04:54:59.779Z,36.25
2019-04-13T04:57:33.739Z,34.95
2019-04-13T05:00:07.040Z,36.63
2019-04-13T05:02:39.880Z,33.10
2019-04-13T05:05:12.319Z,34.40
2019-04-13T05:07:44.880Z,35.85
2019-04-13T05:10:17.779Z,36.35
2019-04-13T05:12:48.359Z,35.50
2019-04-13T05:15:21.460Z,35.98
2019-04-13T05:17:53.580Z,35.00
2019-04-13T05:20:26.440Z,35.80
2019-04-13T05:22:59.859Z,35.08
2019-04-13T05:25:32.799Z,35.83
2019-04-13T05:28:05.039Z,34.75
2019-04-13T05:30:35.922Z,36.08
2019-04-13T05:33:08.399Z,35.50
2019-04-13T05:35:42.019Z,36.80
2019-04-13T05:38:15.039Z,34.80
2019-04-13T05:40:48.639Z,35.50
2019-04-13T05:43:21.519Z,35.55
2019-04-13T05:45:54.440Z,35.90
2019-04-13T05:48:25.540Z,37.42
2019-04-13T05:50:58.800Z,37.80
2019-04-13T05:53:31.660Z,37.38
2019-04-13T05:56:04.860Z,37.50
2019-04-13T05:58:36.081Z,39.95
2019-04-13T06:01:08.639Z,36.80
2019-04-13T06:03:40.739Z,36.10
2019-04-13T06:06:13.560Z,37.28
2019-04-13T06:08:45.761Z,37.40
2019-04-13T06:11:18.319Z,38.60
2019-04-13T06:13:50.320Z,38.08
2019-04-13T06:16:22.759Z,38.20
2019-04-13T06:18:55.919Z,39.50
2019-04-13T06:21:28.462Z,38.28
2019-04-13T06:24:01.020Z,36.83
2019-04-13T06:26:34.040Z,38.75
2019-04-13T06:29:07.439Z,37.80
2019-04-13T06:31:58.252Z,37.70
2019-04-13T06:34:38.526Z,37.60
2019-04-13T06:37:12.313Z,36.38
2019-04-13T06:39:43.941Z,37.23
2019-04-13T06:42:17.004Z,37.65
2019-04-13T06:44:49.739Z,35.75
2019-04-13T06:47:22.559Z,37.08
2019-04-13T06:49:56.521Z,37.40
2019-04-13T06:52:29.880Z,34.83
2019-04-13T06:55:02.059Z,34.83
2019-04-13T06:57:34.479Z,38.38
2019-04-13T07:00:11.804Z,37.15
2019-04-13T07:02:42.459Z,36.70
2019-04-13T07:05:15.380Z,36.75
2019-04-13T07:08:24.239Z,37.88
2019-04-13T07:11:13.958Z,36.23
2019-04-13T07:13:53.442Z,38.70
2019-04-13T07:16:35.491Z,38.85
2019-04-13T07:19:08.327Z,36.35
2019-04-13T07:21:40.807Z,35.43
2019-04-13T07:24:13.182Z,36.28
2019-04-13T07:26:46.838Z,36.83
2019-04-13T07:29:22.094Z,36.55
2019-04-13T07:31:53.258Z,36.40
2019-04-13T07:34:25.735Z,36.63
2019-04-13T07:36:58.976Z,35.10
2019-04-13T07:39:31.819Z,34.20
2019-04-13T07:42:05.720Z,34.38
2019-04-13T07:44:46.435Z,34.18
2019-04-13T07:47:38.735Z,30.52
2019-04-13T07:50:28.415Z,32.80
2019-04-13T07:53:04.129Z,33.40
2019-04-13T07:55:37.275Z,35.50
2019-04-13T07:58:10.479Z,32.55
2019-04-13T08:00:45.877Z,34.92
2019-04-13T08:03:18.996Z,35.48
2019-04-13T08:05:51.551Z,35.30
2019-04-13T08:08:24.108Z,33.55
2019-04-13T08:10:56.068Z,33.95
2019-04-13T08:13:27.367Z,34.58
2019-04-13T08:15:59.666Z,36.38
2019-04-13T08:18:39.252Z,33.75
2019-04-13T08:21:12.267Z,33.67
2019-04-13T08:23:56.756Z,35.80
2019-04-13T08:26:28.814Z,31.73
2019-04-13T08:29:00.899Z,33.95
2019-04-13T08:31:33.915Z,33.30
2019-04-13T08:34:07.533Z,36.40
2019-04-13T08:36:40.432Z,33.05
2019-04-13T08:41:51.195Z,33.33
2019-04-13T08:42:18.244Z,35.70
2019-04-13T08:44:23.532Z,34.80
2019-04-13T08:46:56.344Z,34.50
2019-04-13T08:49:28.604Z,36.75
2019-04-13T08:52:01.805Z,35.50
2019-04-13T08:54:34.867Z,34.38
2019-04-13T08:57:07.664Z,36.70
2019-04-13T08:59:39.764Z,35.23
2019-04-13T09:02:12.723Z,35.60
2019-04-13T09:04:44.405Z,36.30
2019-04-13T09:07:16.964Z,36.55
2019-04-13T09:09:50.752Z,36.60
2019-04-13T09:12:24.586Z,37.48
2019-04-13T09:14:59.568Z,35.08
2019-04-13T09:17:37.784Z,38.28
2019-04-13T09:20:16.683Z,35.98
2019-04-13T09:23:06.611Z,36.13
2019-04-13T09:25:39.763Z,33.20
2019-04-13T09:28:12.883Z,31.57
2019-04-13T09:30:46.044Z,35.25
2019-04-13T09:33:19.345Z,35.75
2019-04-13T09:35:51.284Z,31.85
2019-04-13T09:38:23.705Z,34.33
2019-04-13T09:40:54.503Z,36.10
2019-04-13T09:43:34.884Z,34.45
2019-04-13T09:46:07.086Z,35.88
2019-04-13T09:48:40.224Z,35.80
2019-04-13T09:51:12.885Z,36.85
2019-04-13T09:53:48.527Z,36.17
2019-04-13T09:56:20.851Z,36.50
2019-04-13T09:58:54.356Z,37.35
2019-04-13T10:01:26.910Z,34.95
2019-04-13T10:03:58.809Z,38.25
2019-04-13T10:06:31.813Z,36.95
2019-04-13T10:09:08.260Z,36.40
2019-04-13T10:11:45.211Z,38.50
2019-04-13T10:14:47.462Z,41.60
2019-04-13T10:17:38.608Z,31.73
2019-04-13T10:20:11.391Z,33.48
2019-04-13T10:22:44.667Z,31.17
2019-04-13T10:25:17.967Z,26.80
2019-04-13T10:27:49.186Z,20.25
2019-04-13T10:30:21.894Z,23.00
2019-04-13T10:32:54.927Z,24.15
2019-04-13T10:35:27.628Z,32.93
2019-04-13T10:38:00.455Z,35.92
2019-04-13T10:40:33.475Z,33.23
2019-04-13T10:43:06.282Z,35.15
2019-04-13T10:46:02.121Z,34.43
2019-04-13T10:48:52.864Z,35.90
2019-04-13T10:51:33.645Z,36.35
2019-04-13T10:54:04.737Z,34.40
2019-04-13T10:56:38.014Z,35.58
2019-04-13T10:59:10.193Z,33.73
2019-04-13T11:01:42.956Z,34.30
2019-04-13T11:04:16.253Z,33.83
2019-04-13T11:06:52.625Z,34.27
2019-04-13T11:09:22.292Z,33.28
2019-04-13T11:11:54.541Z,25.97
2019-04-13T11:14:27.409Z,26.87
2019-04-13T11:17:00.528Z,27.55
2019-04-13T11:19:35.306Z,27.07
2019-04-13T11:22:07.687Z,28.60
2019-04-13T11:24:40.470Z,32.63
2019-04-13T11:27:13.323Z,34.53
2019-04-13T11:29:46.046Z,36.50
2019-04-13T11:32:18.726Z,40.20
2019-04-13T11:34:51.115Z,36.15
2019-04-13T11:37:22.515Z,29.72
2019-04-13T11:39:55.475Z,27.48
2019-04-13T11:43:01.295Z,25.57
2019-04-13T11:45:51.534Z,36.38
2019-04-13T11:48:37.773Z,38.73
2019-04-13T11:51:31.829Z,41.23
2019-04-13T11:54:04.096Z,39.13
2019-04-13T11:56:37.279Z,38.28
2019-04-13T11:59:09.512Z,37.93
2019-04-13T12:02:12.074Z,34.43
2019-04-13T12:05:05.635Z,40.63
2019-04-13T12:07:47.499Z,40.30
2019-04-13T12:10:47.373Z,39.13
2019-04-13T12:13:32.837Z,36.53
